Time;durP1;ratioP1;P1;durP2;ratioP2;P2;SDS_P1;SDS_P2;PMS_P1;PMS_P2;Temp;Humidity;BMP_temperature;BMP_pressure;BME280_temperature;BME280_humidity;BME280_pressure;Samples;Min_cycle;Max_cycle;Signal;HPM_P1;HPM_P2
2021/06/08 00:01:29;;;;;;;49.90;24.53;;;16.80;97.30;;;;;;4935904;29;20518;-89
2021/06/08 00:07:51;;;;;;;50.10;24.63;;;16.70;97.30;;;;;;4936402;29;20466;-88
2021/06/08 00:14:03;;;;;;;54.30;24.40;;;16.70;97.30;;;;;;4915507;29;20411;-89
2021/06/08 00:16:28;;;;;;;60.03;25.80;;;16.60;97.30;;;;;;4910365;29;20957;-88
2021/06/08 00:18:59;;;;;;;48.90;25.23;;;16.60;97.30;;;;;;4919896;29;20428;-89
2021/06/08 00:21:31;;;;;;;47.40;23.63;;;16.60;97.30;;;;;;4919713;29;20215;-88
2021/06/08 00:23:59;;;;;;;45.30;24.10;;;16.60;97.30;;;;;;4936829;29;20415;-89
2021/06/08 00:26:27;;;;;;;52.13;25.60;;;16.60;97.30;;;;;;4936506;29;20466;-89
2021/06/08 00:28:56;;;;;;;52.17;24.87;;;16.60;97.30;;;;;;4919490;29;20947;-89
2021/06/08 00:31:24;;;;;;;47.87;24.97;;;16.50;97.30;;;;;;4919165;29;20439;-89
2021/06/08 00:33:51;;;;;;;52.07;24.87;;;16.50;97.30;;;;;;4919778;29;21083;-89
2021/06/08 00:36:16;;;;;;;49.27;25.10;;;16.50;97.30;;;;;;4919728;29;20424;-88
2021/06/08 00:38:45;;;;;;;52.40;24.57;;;16.50;97.30;;;;;;4920258;29;20431;-88
2021/06/08 00:41:11;;;;;;;50.07;23.50;;;16.40;97.30;;;;;;4912304;29;20201;-89
2021/06/08 00:43:38;;;;;;;50.60;23.60;;;16.40;97.30;;;;;;4901579;29;20425;-89
2021/06/08 00:46:03;;;;;;;45.17;23.90;;;16.40;97.30;;;;;;4901127;29;20460;-88
2021/06/08 00:48:29;;;;;;;45.10;23.40;;;16.40;97.30;;;;;;4918475;29;20431;-89
2021/06/08 00:50:58;;;;;;;52.00;23.50;;;16.50;97.30;;;;;;4902898;29;20420;-89
2021/06/08 00:54:10;;;;;;;50.73;24.90;;;16.40;97.30;;;;;;4901459;29;20184;-89
2021/06/08 00:56:40;;;;;;;47.13;22.27;;;16.40;97.30;;;;;;4918319;29;20488;-90
2021/06/08 00:59:06;;;;;;;52.57;26.10;;;16.40;97.30;;;;;;4900178;29;20416;-89
2021/06/08 01:01:32;;;;;;;51.10;25.30;;;16.40;97.30;;;;;;4900103;29;20472;-89
2021/06/08 01:04:01;;;;;;;48.03;23.93;;;16.30;97.30;;;;;;4906484;29;20507;-88
2021/06/08 01:06:26;;;;;;;46.17;22.60;;;16.30;97.30;;;;;;4916439;29;20531;-89
2021/06/08 01:08:52;;;;;;;51.00;23.43;;;16.30;97.30;;;;;;4918227;29;20440;-89
2021/06/08 01:11:20;;;;;;;45.30;22.73;;;16.30;97.30;;;;;;4918231;29;20227;-89
2021/06/08 01:13:53;;;;;;;49.27;23.40;;;16.30;97.30;;;;;;4935373;29;20183;-88
2021/06/08 01:16:41;;;;;;;51.47;24.67;;;16.30;97.30;;;;;;4918276;29;20503;-89
2021/06/08 01:22:25;;;;;;;45.00;22.90;;;16.30;97.30;;;;;;4935551;29;20778;-89
2021/06/08 01:25:35;;;;;;;44.13;22.37;;;16.30;97.30;;;;;;4918084;29;20435;-89
2021/06/08 01:28:01;;;;;;;45.90;23.60;;;16.20;97.30;;;;;;4918314;29;20966;-89
2021/06/08 01:30:30;;;;;;;52.63;24.90;;;16.20;97.30;;;;;;4923749;23;20869;-89
2021/06/08 01:33:10;;;;;;;50.17;25.10;;;16.20;97.30;;;;;;4916440;29;20416;-89
2021/06/08 01:35:39;;;;;;;50.13;24.57;;;16.20;97.30;;;;;;4916958;29;20448;-90
2021/06/08 01:38:10;;;;;;;48.50;23.83;;;16.20;97.30;;;;;;4899944;29;20459;-90
2021/06/08 01:40:41;;;;;;;51.73;24.67;;;16.20;97.30;;;;;;4899622;29;20504;-89
2021/06/08 01:43:13;;;;;;;51.63;25.20;;;16.20;97.30;;;;;;4899787;29;20413;-90
2021/06/08 01:45:52;;;;;;;;;;;;;;;;;;;;;
2021/06/08 01:57:44;;;;;;;43.90;23.20;;;16.10;97.30;;;;;;4919403;29;20503;-89
2021/06/08 01:59:49;;;;;;;46.03;23.80;;;16.00;97.30;;;;;;4907638;29;20836;-90
2021/06/08 02:02:45;;;;;;;50.60;25.13;;;16.00;97.30;;;;;;4904346;29;20404;-90
2021/06/08 02:05:46;;;;;;;52.80;25.20;;;16.00;97.30;;;;;;4904400;29;20419;-90
2021/06/08 02:08:17;;;;;;;48.93;25.30;;;16.00;97.30;;;;;;4900882;29;20443;-90
2021/06/08 02:11:50;;;;;;;52.87;25.07;;;16.00;97.30;;;;;;4904121;29;20939;-90
2021/06/08 02:18:16;;;;;;;52.87;26.03;;;15.80;97.30;;;;;;4920105;29;20403;-90
2021/06/08 02:20:49;;;;;;;59.10;26.23;;;15.80;97.30;;;;;;4919331;29;20424;-90
2021/06/08 02:23:21;;;;;;;56.00;27.47;;;15.80;97.30;;;;;;4902520;29;20424;-90
2021/06/08 02:26:01;;;;;;;;;;;;;;;;;;;;;
2021/06/08 02:29:30;;;;;;;;;;;;;;;;;;;;;
2021/06/08 02:32:18;;;;;;;56.03;26.60;;;15.70;97.30;;;;;;4860828;29;20976;-90
2021/06/08 02:34:51;;;;;;;54.33;26.57;;;15.70;97.30;;;;;;4855546;29;20413;-89
2021/06/08 02:37:45;;;;;;;59.60;27.60;;;15.70;97.30;;;;;;4902046;29;20428;-90
2021/06/08 02:40:20;;;;;;;57.27;27.13;;;15.70;97.30;;;;;;4918438;29;20440;-90
2021/06/08 02:43:15;;;;;;;65.80;28.67;;;15.70;97.30;;;;;;4902012;29;20523;-90
2021/06/08 02:46:16;;;;;;;61.60;28.10;;;15.70;97.30;;;;;;4844585;29;20537;-90
2021/06/08 02:49:11;;;;;;;61.97;29.40;;;15.70;97.30;;;;;;4817909;29;20468;-90
2021/06/08 02:51:41;;;;;;;64.97;29.53;;;15.60;97.30;;;;;;4882475;29;20444;-90
2021/06/08 02:54:14;;;;;;;59.40;29.40;;;15.60;97.30;;;;;;4901635;29;20425;-89
2021/06/08 02:56:41;;;;;;;73.30;32.73;;;15.60;97.30;;;;;;4902330;29;20431;-90
2021/06/08 02:59:08;;;;;;;77.90;33.60;;;15.60;97.30;;;;;;4902008;29;20425;-90
2021/06/08 03:01:40;;;;;;;59.33;29.77;;;15.50;97.30;;;;;;4902277;29;20447;-90
2021/06/08 03:04:10;;;;;;;74.40;33.57;;;15.50;97.30;;;;;;4902067;29;20871;-90
2021/06/08 03:06:58;;;;;;;66.23;33.23;;;15.50;97.30;;;;;;4902357;29;20468;-90
2021/06/08 03:09:41;;;;;;;61.50;29.00;;;15.50;97.30;;;;;;4902688;29;20483;-89
2021/06/08 03:12:23;;;;;;;72.93;32.47;;;15.40;97.30;;;;;;4903264;29;20409;-88
2021/06/08 03:18:30;;;;;;;;;;;;;;;;;;;;;
2021/06/08 03:21:53;;;;;;;69.57;30.07;;;15.30;97.30;;;;;;4938600;23;20510;-90
2021/06/08 03:25:02;;;;;;;;;;;;;;;;;;;;;
2021/06/08 03:27:33;;;;;;;72.27;31.10;;;15.30;97.30;;;;;;4939000;29;20478;-90
2021/06/08 03:30:00;;;;;;;73.03;32.20;;;15.30;97.30;;;;;;4921139;29;20463;-90
2021/06/08 03:32:27;;;;;;;68.60;32.03;;;15.30;97.30;;;;;;4938056;29;20416;-89
2021/06/08 03:35:06;;;;;;;67.53;30.30;;;15.30;97.30;;;;;;4919414;29;20446;-89
2021/06/08 03:38:06;;;;;;;70.60;31.73;;;15.30;97.30;;;;;;4920319;29;20446;-90
2021/06/08 03:41:10;;;;;;;71.70;29.93;;;15.30;97.30;;;;;;4920951;29;20507;-90
2021/06/08 03:44:31;;;;;;;76.43;33.03;;;15.30;97.30;;;;;;4920572;29;21079;-90
2021/06/08 03:50:31;;;;;;;69.90;31.90;;;15.30;97.30;;;;;;4841770;29;20489;-89
2021/06/08 03:53:06;;;;;;;70.87;31.17;;;15.40;97.30;;;;;;4871385;29;20428;-90
2021/06/08 03:55:54;;;;;;;72.80;31.90;;;15.40;97.30;;;;;;4880892;29;20770;-90
2021/06/08 03:58:21;;;;;;;71.47;31.53;;;15.40;97.30;;;;;;4880916;29;20452;-90
2021/06/08 04:01:25;;;;;;;65.43;30.20;;;15.40;97.30;;;;;;4880845;29;20484;-88
2021/06/08 04:03:51;;;;;;;70.73;32.20;;;15.50;97.30;;;;;;4833626;29;20429;-90
2021/06/08 04:06:36;;;;;;;;;;;;;;;;;;;;;
2021/06/08 04:16:40;;;;;;;;;;;;;;;;;;;;;
2021/06/08 04:19:31;;;;;;;;;;;;;;;;;;;;;
2021/06/08 04:22:56;;;;;;;73.10;35.00;;;15.70;97.30;;;;;;4765955;30;20479;-91
2021/06/08 04:28:36;;;;;;;78.47;34.73;;;15.70;97.30;;;;;;4734636;30;20469;-91
2021/06/08 04:41:15;;;;;;;79.93;36.47;;;15.90;97.30;;;;;;4921119;29;20489;-90
2021/06/08 04:43:41;;;;;;;82.20;37.33;;;15.90;97.30;;;;;;4907538;29;20427;-92
2021/06/08 04:46:13;;;;;;;76.63;36.93;;;15.90;97.30;;;;;;4906346;29;20212;-91
2021/06/08 04:48:39;;;;;;;73.97;34.70;;;15.90;97.30;;;;;;4906872;29;20421;-91
2021/06/08 04:51:05;;;;;;;78.90;35.50;;;16.00;97.30;;;;;;4906188;29;20440;-92
2021/06/08 04:53:30;;;;;;;75.20;34.60;;;16.00;97.30;;;;;;4905818;29;20480;-91
2021/06/08 04:55:56;;;;;;;75.00;37.10;;;16.00;97.30;;;;;;4906344;29;20183;-92
2021/06/08 04:58:22;;;;;;;75.37;34.93;;;16.10;97.30;;;;;;4906216;29;20635;-91
2021/06/08 05:00:54;;;;;;;78.83;38.23;;;16.20;97.30;;;;;;4921519;29;20212;-90
2021/06/08 05:03:25;;;;;;;78.73;36.17;;;16.20;97.30;;;;;;4905388;29;20444;-91
2021/06/08 05:05:55;;;;;;;84.40;38.60;;;16.20;97.30;;;;;;4909459;29;20460;-90
2021/06/08 05:08:52;;;;;;;88.93;39.57;;;16.20;97.30;;;;;;4906042;29;20417;-91
2021/06/08 05:15:36;;;;;;;87.17;39.33;;;16.20;97.30;;;;;;4924274;29;20456;-92
2021/06/08 05:21:14;;;;;;;82.80;39.43;;;16.30;97.30;;;;;;4930282;23;20950;-78
2021/06/08 05:23:40;;;;;;;95.90;39.77;;;16.30;97.30;;;;;;4930976;29;20812;-77
2021/06/08 05:26:06;;;;;;;100.40;42.43;;;16.20;97.30;;;;;;4916389;29;20507;-78
2021/06/08 05:28:38;;;;;;;90.40;39.47;;;16.30;97.30;;;;;;4915423;29;20978;-78
2021/06/08 05:31:04;;;;;;;91.53;40.40;;;16.30;97.30;;;;;;4932840;29;20432;-77
2021/06/08 05:33:29;;;;;;;90.40;39.70;;;16.30;97.30;;;;;;4933428;29;20408;-77
2021/06/08 05:35:56;;;;;;;90.40;39.90;;;16.40;97.30;;;;;;4916712;29;20184;-78
2021/06/08 05:38:36;;;;;;;91.33;41.10;;;16.40;97.30;;;;;;4915364;29;20195;-81
2021/06/08 05:41:06;;;;;;;83.60;40.20;;;16.40;97.30;;;;;;4916283;29;20971;-78
2021/06/08 05:43:32;;;;;;;85.50;39.37;;;16.40;97.30;;;;;;4917484;29;20447;-78
2021/06/08 05:45:58;;;;;;;87.83;39.77;;;16.40;97.30;;;;;;4917345;29;20495;-78
2021/06/08 05:48:26;;;;;;;86.80;40.30;;;16.40;97.30;;;;;;4908501;29;20177;-78
2021/06/08 05:51:02;;;;;;;81.80;39.00;;;16.40;97.30;;;;;;4924205;29;20475;-79
2021/06/08 05:53:28;;;;;;;85.70;40.07;;;16.40;97.30;;;;;;4917790;29;20412;-78
2021/06/08 05:55:56;;;;;;;83.50;40.70;;;16.40;97.30;;;;;;4917563;29;20420;-78
2021/06/08 05:58:27;;;;;;;81.93;38.93;;;16.40;97.30;;;;;;4917353;29;20915;-77
2021/06/08 06:00:54;;;;;;;91.30;40.57;;;16.40;97.30;;;;;;4934172;29;20451;-78
2021/06/08 06:03:21;;;;;;;83.20;38.60;;;16.40;97.30;;;;;;4901615;29;20435;-78
2021/06/08 06:05:48;;;;;;;87.83;39.30;;;16.40;97.30;;;;;;4915436;29;20462;-77
2021/06/08 06:08:14;;;;;;;84.40;39.73;;;16.50;97.30;;;;;;4916320;29;20428;-78
2021/06/08 06:10:41;;;;;;;83.90;38.63;;;16.50;97.30;;;;;;4917002;29;20476;-78
2021/06/08 06:13:09;;;;;;;86.10;41.57;;;16.50;97.30;;;;;;4916265;29;20415;-79
2021/06/08 06:15:36;;;;;;;81.53;40.10;;;16.50;97.30;;;;;;4910416;29;20488;-78
2021/06/08 06:18:03;;;;;;;80.63;39.67;;;16.50;97.30;;;;;;4897422;29;20886;-77
2021/06/08 06:20:28;;;;;;;76.87;35.60;;;16.50;97.30;;;;;;4893465;29;20465;-77
2021/06/08 06:22:54;;;;;;;86.30;40.00;;;16.50;97.30;;;;;;4895448;29;20413;-77
2021/06/08 06:25:20;;;;;;;82.80;39.77;;;16.50;97.30;;;;;;4894155;29;20275;-77
2021/06/08 06:27:46;;;;;;;78.27;39.27;;;16.60;97.30;;;;;;4896669;29;20220;-77
2021/06/08 06:30:14;;;;;;;85.60;41.47;;;16.60;97.30;;;;;;4896964;29;20180;-77
2021/06/08 06:32:41;;;;;;;76.83;39.13;;;16.70;97.30;;;;;;4897289;29;20417;-77
2021/06/08 06:35:09;;;;;;;82.93;39.70;;;16.70;97.30;;;;;;4885443;29;20546;-77
2021/06/08 06:37:35;;;;;;;87.23;39.57;;;16.70;97.30;;;;;;4881497;29;20476;-76
2021/06/08 06:40:03;;;;;;;84.27;40.77;;;16.80;97.30;;;;;;4881889;29;20428;-76
2021/06/08 06:42:36;;;;;;;80.13;39.57;;;16.80;97.30;;;;;;4882605;29;20456;-76
2021/06/08 06:45:03;;;;;;;87.30;41.10;;;16.80;97.30;;;;;;4882740;29;20429;-76
2021/06/08 06:47:30;;;;;;;83.27;40.03;;;16.80;97.30;;;;;;4882001;29;20488;-76
2021/06/08 06:49:56;;;;;;;87.53;41.20;;;16.90;97.30;;;;;;4881598;29;20438;-76
2021/06/08 06:52:22;;;;;;;71.63;37.60;;;17.00;97.30;;;;;;4881498;29;20452;-76
2021/06/08 06:54:48;;;;;;;80.83;40.37;;;17.00;97.30;;;;;;4881493;29;20394;-76
2021/06/08 06:57:13;;;;;;;80.70;40.00;;;17.10;97.30;;;;;;4894348;29;20576;-76
2021/06/08 06:59:39;;;;;;;87.00;41.40;;;17.20;97.30;;;;;;4899793;29;20416;-76
2021/06/08 07:02:06;;;;;;;80.73;39.97;;;17.20;97.30;;;;;;4887738;29;20208;-76
2021/06/08 07:04:33;;;;;;;79.30;40.30;;;17.10;97.30;;;;;;4892145;29;20421;-76
2021/06/08 07:06:59;;;;;;;87.43;39.47;;;17.10;97.30;;;;;;4900080;29;20845;-75
2021/06/08 07:09:26;;;;;;;82.50;37.80;;;17.10;97.30;;;;;;4899740;29;20420;-76
2021/06/08 07:11:54;;;;;;;78.43;38.33;;;17.10;97.30;;;;;;4906482;29;20463;-76
2021/06/08 07:14:20;;;;;;;79.83;39.87;;;17.20;97.30;;;;;;4880982;29;20421;-76
2021/06/08 07:16:47;;;;;;;80.17;39.80;;;17.20;97.30;;;;;;4880870;29;20458;-76
2021/06/08 07:19:14;;;;;;;73.83;37.07;;;17.30;97.30;;;;;;4880585;29;20948;-76
2021/06/08 07:21:42;;;;;;;76.97;38.83;;;17.30;97.30;;;;;;4888554;29;20842;-76
2021/06/08 07:24:10;;;;;;;75.40;39.10;;;17.40;97.30;;;;;;4899461;29;20940;-76
2021/06/08 07:26:36;;;;;;;80.47;38.67;;;17.40;97.30;;;;;;4899305;29;20533;-76
2021/06/08 07:29:03;;;;;;;77.87;38.50;;;17.50;97.30;;;;;;4899277;29;20417;-76
2021/06/08 07:31:43;;;;;;;70.70;38.00;;;17.60;97.30;;;;;;4892555;29;20442;-76
2021/06/08 07:34:17;;;;;;;72.30;37.93;;;17.70;97.30;;;;;;4880604;29;20768;-76
2021/06/08 07:36:45;;;;;;;74.80;37.80;;;17.70;97.30;;;;;;4880471;29;20428;-76
2021/06/08 07:39:28;;;;;;;83.27;44.40;;;17.70;97.30;;;;;;4880198;29;20476;-75
2021/06/08 07:42:05;;;;;;;77.40;39.07;;;17.70;97.30;;;;;;4881223;29;20770;-76
2021/06/08 07:44:35;;;;;;;71.60;37.33;;;17.80;97.30;;;;;;4891852;29;20448;-75
2021/06/08 07:47:05;;;;;;;67.73;36.63;;;17.80;97.30;;;;;;4879320;29;20473;-75
2021/06/08 07:49:33;;;;;;;80.23;42.00;;;17.80;97.30;;;;;;4879007;29;20432;-75
2021/06/08 07:52:00;;;;;;;77.13;37.67;;;17.90;97.30;;;;;;4895253;29;20440;-75
2021/06/08 07:54:27;;;;;;;73.03;38.77;;;17.90;97.30;;;;;;4899252;29;20528;-75
2021/06/08 07:56:53;;;;;;;89.20;41.27;;;18.00;97.30;;;;;;4899233;29;20520;-74
2021/06/08 07:59:20;;;;;;;70.90;38.10;;;18.10;97.30;;;;;;4899139;29;20983;-74
2021/06/08 08:01:47;;;;;;;79.73;42.50;;;18.10;97.30;;;;;;4898340;29;20204;-74
2021/06/08 08:04:18;;;;;;;83.57;42.23;;;18.20;97.30;;;;;;4899952;29;20420;-74
2021/06/08 08:06:54;;;;;;;67.97;36.70;;;18.20;97.30;;;;;;4898992;29;20996;-74
2021/06/08 08:09:20;;;;;;;73.17;38.10;;;18.20;97.30;;;;;;4896003;29;20417;-76
2021/06/08 08:11:47;;;;;;;73.63;38.30;;;18.20;97.30;;;;;;4897025;29;20815;-73
2021/06/08 08:14:15;;;;;;;70.90;38.57;;;18.20;97.30;;;;;;4879636;29;20984;-74
2021/06/08 08:16:46;;;;;;;71.97;39.17;;;18.20;97.30;;;;;;4894065;29;20437;-75
2021/06/08 08:19:12;;;;;;;68.43;36.83;;;18.30;97.30;;;;;;4898664;29;20460;-75
2021/06/08 08:21:37;;;;;;;74.93;39.27;;;18.40;97.30;;;;;;4894532;29;20477;-74
2021/06/08 08:24:03;;;;;;;74.03;37.93;;;18.50;97.30;;;;;;4898266;29;20440;-74
2021/06/08 08:26:29;;;;;;;82.07;40.63;;;18.70;97.30;;;;;;4881824;29;20256;-75
2021/06/08 08:28:59;;;;;;;67.53;37.80;;;18.80;97.30;;;;;;4880228;29;20424;-74
2021/06/08 08:31:28;;;;;;;70.60;37.90;;;18.90;97.30;;;;;;4880335;29;20196;-75
2021/06/08 08:33:53;;;;;;;71.00;37.90;;;18.90;97.30;;;;;;4880257;29;20487;-76
2021/06/08 08:36:19;;;;;;;85.70;43.53;;;18.90;97.30;;;;;;4896448;29;20441;-77
2021/06/08 08:38:44;;;;;;;70.77;38.57;;;18.90;97.30;;;;;;4893269;29;20185;-76
2021/06/08 08:41:10;;;;;;;67.53;37.60;;;18.90;97.30;;;;;;4907775;29;20652;-76
2021/06/08 08:43:38;;;;;;;74.40;38.70;;;18.90;97.30;;;;;;4896524;29;20185;-76
2021/06/08 08:46:04;;;;;;;67.00;36.33;;;19.00;97.30;;;;;;4891926;29;20463;-76
2021/06/08 08:48:31;;;;;;;72.80;39.87;;;19.10;97.30;;;;;;4887878;29;20430;-76
2021/06/08 08:50:56;;;;;;;62.20;35.17;;;19.20;97.30;;;;;;4879295;29;20197;-77
2021/06/08 08:53:23;;;;;;;77.33;39.93;;;19.40;97.30;;;;;;4888818;29;20955;-76
2021/06/08 08:55:49;;;;;;;68.90;36.60;;;19.50;97.30;;;;;;4897946;29;20187;-78
2021/06/08 08:58:16;;;;;;;70.60;37.27;;;19.60;97.30;;;;;;4896840;29;20944;-78
2021/06/08 09:00:44;;;;;;;63.13;35.67;;;19.60;97.30;;;;;;4895651;29;20532;-77
2021/06/08 09:03:13;;;;;;;69.20;35.97;;;19.70;97.30;;;;;;4878452;29;20425;-75
2021/06/08 09:05:39;;;;;;;70.23;37.97;;;19.80;97.30;;;;;;4896234;29;20714;-77
2021/06/08 09:08:06;;;;;;;66.00;36.47;;;19.90;97.30;;;;;;4878689;29;20417;-77
2021/06/08 09:10:35;;;;;;;61.53;35.27;;;19.90;97.30;;;;;;4878283;29;20188;-77
2021/06/08 09:13:01;;;;;;;63.90;35.33;;;19.90;97.30;;;;;;4878686;29;21004;-77
2021/06/08 09:15:28;;;;;;;64.63;36.07;;;20.00;97.30;;;;;;4879335;29;20430;-77
2021/06/08 09:17:55;;;;;;;57.47;34.27;;;20.10;97.30;;;;;;4896153;29;20960;-77
2021/06/08 09:20:21;;;;;;;65.27;36.70;;;20.10;97.30;;;;;;4913147;29;20425;-76
2021/06/08 09:22:48;;;;;;;64.07;35.33;;;20.10;97.30;;;;;;4897053;29;20413;-76
2021/06/08 09:25:14;;;;;;;58.73;34.13;;;20.20;97.30;;;;;;4896679;29;20417;-76
2021/06/08 09:27:40;;;;;;;63.63;36.73;;;20.30;97.30;;;;;;4896705;29;21014;-76
2021/06/08 09:30:14;;;;;;;63.57;36.03;;;20.40;97.30;;;;;;4912685;29;20429;-77
2021/06/08 09:32:39;;;;;;;56.97;33.40;;;20.50;97.30;;;;;;4897341;29;20232;-76
2021/06/08 09:35:05;;;;;;;65.00;35.97;;;20.50;97.30;;;;;;4895098;29;20512;-75
2021/06/08 09:37:42;;;;;;;55.53;34.83;;;20.50;97.30;;;;;;4896924;29;20176;-75
2021/06/08 09:40:21;;;;;;;59.30;34.23;;;20.50;97.30;;;;;;4898174;29;20412;-76
2021/06/08 09:42:48;;;;;;;63.43;35.00;;;20.50;97.30;;;;;;4898979;29;20427;-76
2021/06/08 09:45:23;;;;;;;62.33;35.20;;;20.50;97.30;;;;;;4898521;29;20417;-75
2021/06/08 09:48:00;;;;;;;58.03;33.90;;;20.60;97.30;;;;;;4898421;29;20459;-74
2021/06/08 09:50:26;;;;;;;57.50;35.47;;;20.70;97.30;;;;;;4898300;29;20420;-77
2021/06/08 09:53:16;;;;;;;71.00;35.60;;;20.70;97.30;;;;;;4898455;29;20568;-77
2021/06/08 09:55:58;;;;;;;60.83;35.27;;;20.80;97.30;;;;;;4898812;29;20427;-76
2021/06/08 09:58:26;;;;;;;58.30;33.20;;;20.90;97.30;;;;;;4898358;29;20412;-76
2021/06/08 10:01:12;;;;;;;62.13;35.40;;;21.00;97.30;;;;;;4898118;29;20432;-76
2021/06/08 10:03:44;;;;;;;57.27;32.70;;;21.10;97.30;;;;;;4898410;29;20423;-78
2021/06/08 10:06:34;;;;;;;51.10;31.53;;;21.20;97.30;;;;;;4898737;29;21019;-76
2021/06/08 10:09:02;;;;;;;56.60;31.80;;;21.20;97.30;;;;;;4891652;29;20425;-77
2021/06/08 10:11:30;;;;;;;51.60;31.03;;;21.20;97.30;;;;;;4882964;29;20474;-77
2021/06/08 10:14:18;;;;;;;62.80;37.40;;;21.40;97.30;;;;;;4882727;29;20417;-78
2021/06/08 10:16:58;;;;;;;66.63;37.90;;;21.50;97.30;;;;;;4882730;29;20426;-77
2021/06/08 10:19:25;;;;;;;53.27;31.73;;;21.60;97.30;;;;;;4882409;29;20937;-78
2021/06/08 10:21:51;;;;;;;52.70;31.93;;;21.60;97.30;;;;;;4881683;29;20525;-77
2021/06/08 10:24:19;;;;;;;56.10;33.40;;;21.60;97.30;;;;;;4907184;29;20921;-78
2021/06/08 10:26:52;;;;;;;64.10;36.40;;;21.70;97.30;;;;;;4898002;29;20459;-79
2021/06/08 10:29:23;;;;;;;57.03;33.43;;;21.70;97.30;;;;;;4901291;29;20433;-79
2021/06/08 10:31:50;;;;;;;59.13;34.53;;;21.70;97.30;;;;;;4894880;29;20894;-79
2021/06/08 10:34:15;;;;;;;53.90;33.47;;;21.90;97.30;;;;;;4897976;29;20819;-79
2021/06/08 10:36:43;;;;;;;53.40;32.90;;;22.00;97.30;;;;;;4900672;29;20449;-79
2021/06/08 10:39:12;;;;;;;54.47;32.57;;;22.00;97.30;;;;;;4889108;29;20526;-80
2021/06/08 10:41:43;;;;;;;60.97;33.90;;;22.10;97.30;;;;;;4893975;29;20452;-77
2021/06/08 10:44:19;;;;;;;55.50;32.30;;;22.20;97.30;;;;;;4902480;29;20511;-79
2021/06/08 10:46:56;;;;;;;54.20;29.60;;;22.40;97.30;;;;;;4900158;29;20456;-77
2021/06/08 10:49:39;;;;;;;48.53;29.20;;;22.50;97.30;;;;;;4919285;29;20484;-78
2021/06/08 10:52:14;;;;;;;50.33;30.17;;;22.50;97.30;;;;;;4904851;29;20445;-79
2021/06/08 10:54:43;;;;;;;48.23;29.17;;;22.60;97.30;;;;;;4902348;29;20421;-78
2021/06/08 10:57:16;;;;;;;54.40;32.30;;;22.70;97.30;;;;;;4906078;29;20417;-79
2021/06/08 10:59:51;;;;;;;56.10;32.23;;;22.80;97.30;;;;;;4905307;29;20835;-78
2021/06/08 11:02:41;;;;;;;54.47;31.90;;;22.80;97.30;;;;;;4903801;29;20450;-78
2021/06/08 11:05:10;;;;;;;45.60;28.80;;;22.90;97.30;;;;;;4905844;29;20417;-78
2021/06/08 11:07:45;;;;;;;48.20;28.80;;;23.00;97.30;;;;;;4901329;29;20637;-77
2021/06/08 11:10:26;;;;;;;52.07;32.60;;;23.20;97.30;;;;;;4887524;29;20436;-79
2021/06/08 11:13:10;;;;;;;53.23;31.70;;;23.30;97.30;;;;;;4899742;29;20431;-79
2021/06/08 11:15:42;;;;;;;53.17;32.00;;;23.40;97.30;;;;;;4893966;29;20458;-78
2021/06/08 11:18:21;;;;;;;45.97;30.30;;;23.50;97.30;;;;;;4885810;29;20436;-79
2021/06/08 11:21:06;;;;;;;49.20;29.97;;;23.50;97.30;;;;;;4904497;29;20996;-79
2021/06/08 11:23:44;;;;;;;50.37;30.80;;;23.70;97.30;;;;;;4908435;29;20510;-79
2021/06/08 11:26:17;;;;;;;44.37;29.13;;;23.80;97.30;;;;;;4893635;29;20544;-80
2021/06/08 11:28:49;;;;;;;50.53;31.07;;;23.80;97.30;;;;;;4894002;29;20847;-79
2021/06/08 11:31:17;;;;;;;46.27;29.97;;;23.90;97.30;;;;;;4900574;29;20448;-78
2021/06/08 11:33:59;;;;;;;39.77;27.40;;;24.00;97.30;;;;;;4899012;29;20458;-79
2021/06/08 11:36:29;;;;;;;38.20;25.70;;;23.90;97.30;;;;;;4898602;29;20460;-78
2021/06/08 11:39:23;;;;;;;45.37;29.77;;;23.80;97.30;;;;;;4899098;29;20889;-79
2021/06/08 11:41:55;;;;;;;44.83;30.30;;;23.80;97.30;;;;;;4899299;29;20470;-78
2021/06/08 11:44:21;;;;;;;46.73;28.90;;;23.80;97.30;;;;;;4915669;29;20440;-78
2021/06/08 11:47:01;;;;;;;45.20;27.17;;;23.70;97.30;;;;;;4898943;29;20971;-78
2021/06/08 11:49:28;;;;;;;38.20;25.73;;;23.80;97.30;;;;;;4899714;29;20709;-77
2021/06/08 11:52:13;;;;;;;49.07;31.70;;;23.80;97.30;;;;;;4899046;29;20446;-78
2021/06/08 11:54:41;;;;;;;42.00;28.10;;;23.80;97.30;;;;;;4883963;29;20516;-77
2021/06/08 11:57:12;;;;;;;42.77;28.37;;;23.80;97.30;;;;;;4880103;29;20990;-77
2021/06/08 11:59:43;;;;;;;43.60;27.70;;;23.80;97.30;;;;;;4882000;29;20459;-78
2021/06/08 12:02:29;;;;;;;44.00;26.93;;;23.90;97.30;;;;;;4881580;29;20521;-78
2021/06/08 12:05:17;;;;;;;36.60;25.00;;;24.10;97.30;;;;;;4895578;29;20436;-78
2021/06/08 12:08:03;;;;;;;50.70;26.50;;;24.20;97.30;;;;;;4899103;29;20460;-78
2021/06/08 12:10:36;;;;;;;40.57;23.93;;;24.30;97.30;;;;;;4898129;29;20465;-79
2021/06/08 12:13:02;;;;;;;33.23;21.63;;;24.50;97.30;;;;;;4898400;29;20428;-79
2021/06/08 12:15:38;;;;;;;33.23;21.50;;;24.60;97.30;;;;;;4897347;29;20453;-78
2021/06/08 12:18:05;;;;;;;34.40;22.07;;;24.70;94.60;;;;;;4879724;29;20428;-78
2021/06/08 12:20:32;;;;;;;32.67;20.70;;;24.80;96.70;;;;;;4879073;29;20473;-78
2021/06/08 12:22:58;;;;;;;33.60;21.40;;;24.80;95.30;;;;;;4879647;29;20434;-78
2021/06/08 12:25:24;;;;;;;34.27;19.40;;;24.90;95.40;;;;;;4880297;29;20430;-79
2021/06/08 12:27:50;;;;;;;27.50;18.27;;;24.90;93.30;;;;;;4880478;29;20472;-79
2021/06/08 12:30:28;;;;;;;27.77;16.33;;;25.00;95.60;;;;;;4880399;29;20441;-79
2021/06/08 12:33:01;;;;;;;23.83;16.30;;;25.10;94.90;;;;;;4881170;29;20197;-79
2021/06/08 12:35:36;;;;;;;25.13;15.80;;;25.20;92.60;;;;;;4879091;29;21008;-78
2021/06/08 12:38:14;;;;;;;22.93;15.73;;;25.30;90.50;;;;;;4896582;29;20421;-78
2021/06/08 12:40:40;;;;;;;24.30;17.07;;;25.40;90.90;;;;;;4898364;29;20943;-78
2021/06/08 12:43:07;;;;;;;21.40;14.50;;;25.40;90.70;;;;;;4914790;29;21018;-78
2021/06/08 12:45:33;;;;;;;22.57;16.17;;;25.50;91.20;;;;;;4898380;29;20416;-79
2021/06/08 12:47:59;;;;;;;21.50;15.43;;;25.60;91.50;;;;;;4898041;29;20876;-79
2021/06/08 12:50:32;;;;;;;23.70;15.63;;;25.70;92.40;;;;;;4895511;29;20659;-78
2021/06/08 12:52:59;;;;;;;20.90;14.40;;;25.80;91.70;;;;;;4897395;29;20566;-78
2021/06/08 12:55:31;;;;;;;18.37;13.40;;;25.80;89.10;;;;;;4879263;29;20561;-79
2021/06/08 12:57:59;;;;;;;17.20;14.10;;;25.90;89.70;;;;;;4879251;29;20793;-78
2021/06/08 13:00:28;;;;;;;20.53;14.97;;;26.00;90.10;;;;;;4894460;29;20928;-78
2021/06/08 13:02:55;;;;;;;21.37;15.47;;;26.20;92.20;;;;;;4897697;29;20473;-79
2021/06/08 13:05:26;;;;;;;20.60;14.27;;;26.20;91.10;;;;;;4897390;29;20485;-78
2021/06/08 13:07:53;;;;;;;15.63;12.40;;;26.30;88.90;;;;;;4897436;29;20471;-78
2021/06/08 13:10:30;;;;;;;22.00;13.77;;;26.40;89.50;;;;;;4902296;29;20508;-78
2021/06/08 13:12:56;;;;;;;16.40;13.20;;;26.50;91.30;;;;;;4878888;29;20989;-78
2021/06/08 13:15:39;;;;;;;16.50;12.97;;;26.70;91.00;;;;;;4879291;29;20842;-78
2021/06/08 13:18:14;;;;;;;18.60;13.90;;;26.80;90.10;;;;;;4878384;29;20433;-83
2021/06/08 13:20:44;;;;;;;15.17;13.00;;;26.90;88.90;;;;;;4878719;29;20484;-78
2021/06/08 13:23:23;;;;;;;18.20;12.63;;;26.90;88.10;;;;;;4895768;29;20461;-79
2021/06/08 13:26:00;;;;;;;13.10;11.00;;;27.00;89.10;;;;;;4897614;29;20911;-79
2021/06/08 13:28:37;;;;;;;14.20;11.70;;;27.10;89.10;;;;;;4897580;29;20865;-79
2021/06/08 13:31:07;;;;;;;20.30;12.90;;;27.30;90.20;;;;;;4895682;29;20451;-78
2021/06/08 13:33:36;;;;;;;16.93;11.93;;;27.50;89.70;;;;;;4886722;29;20425;-78
2021/06/08 13:36:02;;;;;;;15.07;9.43;;;27.70;90.30;;;;;;4878831;29;20425;-79
2021/06/08 13:38:28;;;;;;;11.60;9.33;;;27.80;84.00;;;;;;4879113;29;20425;-78
2021/06/08 13:40:53;;;;;;;16.63;11.80;;;27.80;83.30;;;;;;4895341;29;20468;-78
2021/06/08 13:43:19;;;;;;;16.00;11.87;;;27.90;85.10;;;;;;4879848;29;20416;-79
2021/06/08 13:45:46;;;;;;;13.40;9.87;;;27.90;84.10;;;;;;4881319;29;20189;-79
2021/06/08 13:48:46;;;;;;;13.10;10.23;;;27.90;83.40;;;;;;4882331;29;20273;-78
2021/06/08 13:51:20;;;;;;;14.10;11.27;;;27.90;81.70;;;;;;4881348;29;20448;-78
2021/06/08 13:54:08;;;;;;;14.50;9.33;;;27.90;82.80;;;;;;4882423;29;20784;-79
2021/06/08 13:56:47;;;;;;;24.73;13.30;;;27.80;80.20;;;;;;4882032;29;20425;-78
2021/06/08 14:02:07;;;;;;;21.03;14.23;;;27.80;85.20;;;;;;4916152;29;20451;-78
2021/06/08 14:04:44;;;;;;;15.83;12.73;;;27.90;85.20;;;;;;4911595;29;20433;-78
2021/06/08 14:07:11;;;;;;;14.30;12.10;;;27.90;85.50;;;;;;4899140;29;20463;-78